createdAt,value
2022-08-04T00:03:00.445Z,27.90
2022-08-04T00:06:38.301Z,27.99
2022-08-04T00:09:59.809Z,27.86
2022-08-04T00:13:03.748Z,27.91
2022-08-04T00:16:06.437Z,27.73
2022-08-04T00:19:16.650Z,27.47
2022-08-04T00:22:22.797Z,27.37
2022-08-04T00:25:25.546Z,27.36
2022-08-04T00:28:28.293Z,27.46
2022-08-04T00:31:33.272Z,27.41
2022-08-04T00:34:51.666Z,27.32
2022-08-04T00:37:55.479Z,27.34
2022-08-04T00:41:06.591Z,27.29
2022-08-04T00:44:23.750Z,27.03
2022-08-04T00:47:31.482Z,27.03
2022-08-04T00:50:59.503Z,27.03
2022-08-04T00:54:00.891Z,26.89
2022-08-04T00:57:34.399Z,26.43
2022-08-04T01:00:58.528Z,26.53
2022-08-04T01:04:15.769Z,26.45
2022-08-04T01:07:26.232Z,26.17
2022-08-04T01:11:01.587Z,25.79
2022-08-04T01:14:21.878Z,25.98
2022-08-04T01:17:35.980Z,25.92
2022-08-04T01:21:00.244Z,25.68
2022-08-04T01:24:26.587Z,25.83
2022-08-04T01:27:40.189Z,25.50
2022-08-04T01:30:48.600Z,25.63
2022-08-04T01:34:03.129Z,25.47
2022-08-04T01:37:26.485Z,25.35
2022-08-04T01:40:28.815Z,25.47
2022-08-04T01:43:32.455Z,25.29
2022-08-04T01:46:35.169Z,25.19
2022-08-04T01:49:40.139Z,25.37
2022-08-04T01:52:47.595Z,25.33
2022-08-04T01:55:55.586Z,25.25
2022-08-04T01:58:57.687Z,25.22
2022-08-04T02:01:59.353Z,25.11
2022-08-04T02:05:00.973Z,25.19
2022-08-04T02:08:17.465Z,25.21
2022-08-04T02:11:22.156Z,24.73
2022-08-04T02:14:42.744Z,24.68
2022-08-04T02:17:57.058Z,24.64
2022-08-04T02:21:01.518Z,24.51
2022-08-04T02:24:12.273Z,24.57
2022-08-04T02:27:15.025Z,24.65
2022-08-04T02:30:19.218Z,24.49
2022-08-04T02:33:27.383Z,24.39
2022-08-04T02:36:34.869Z,24.61
2022-08-04T02:39:42.448Z,24.70
2022-08-04T02:42:50.989Z,24.52
2022-08-04T02:45:56.427Z,24.52
2022-08-04T02:48:58.009Z,24.49
2022-08-04T02:52:00.703Z,24.66
2022-08-04T02:55:03.004Z,24.45
2022-08-04T02:58:05.688Z,24.38
2022-08-04T03:01:07.191Z,24.19
2022-08-04T03:04:09.139Z,24.13
2022-08-04T03:07:39.946Z,23.94
2022-08-04T03:11:12.172Z,24.01
2022-08-04T03:14:39.762Z,23.81
2022-08-04T03:18:15.068Z,23.71
2022-08-04T03:21:52.126Z,23.74
2022-08-04T03:25:56.638Z,23.71
2022-08-04T03:29:26.051Z,23.43
2022-08-04T03:33:03.343Z,23.45
2022-08-04T03:36:08.836Z,23.53
2022-08-04T03:39:38.582Z,23.65
2022-08-04T03:42:39.998Z,23.35
2022-08-04T03:45:52.474Z,23.45
2022-08-04T03:49:32.894Z,23.52
2022-08-04T03:53:11.376Z,23.34
2022-08-04T03:56:18.897Z,23.30
2022-08-04T03:59:41.973Z,23.59
2022-08-04T04:02:53.100Z,23.46
2022-08-04T04:06:22.200Z,23.22
2022-08-04T04:10:06.401Z,23.39
2022-08-04T04:13:21.552Z,23.15
2022-08-04T04:16:31.772Z,23.40
2022-08-04T04:19:58.354Z,23.54
2022-08-04T04:23:06.060Z,23.45
2022-08-04T04:26:34.694Z,23.43
2022-08-04T04:29:51.466Z,23.36
2022-08-04T04:32:57.683Z,23.06
2022-08-04T04:36:02.215Z,23.20
2022-08-04T04:39:16.508Z,23.30
2022-08-04T04:42:39.661Z,23.16
2022-08-04T04:46:15.178Z,23.29
2022-08-04T04:49:26.085Z,23.31
2022-08-04T04:52:41.444Z,23.15
2022-08-04T04:55:48.438Z,23.32
2022-08-04T04:58:54.401Z,23.34
2022-08-04T05:02:01.881Z,23.35
2022-08-04T05:05:33.451Z,23.21
2022-08-04T05:09:08.788Z,23.30
2022-08-04T05:14:29.999Z,23.11
2022-08-04T05:15:47.932Z,23.34
2022-08-04T05:18:59.393Z,23.52
2022-08-04T05:22:14.651Z,23.48
2022-08-04T05:25:27.104Z,23.54
2022-08-04T05:28:34.340Z,23.32
2022-08-04T05:31:42.689Z,23.23
2022-08-04T05:34:52.451Z,23.28
2022-08-04T05:38:01.418Z,23.40
2022-08-04T05:41:04.651Z,23.47
2022-08-04T05:44:09.687Z,23.40
2022-08-04T05:47:12.933Z,23.51
2022-08-04T05:50:14.546Z,23.75
2022-08-04T05:53:17.962Z,23.66
2022-08-04T05:56:19.723Z,23.80
2022-08-04T05:59:25.589Z,23.75
2022-08-04T06:02:28.411Z,23.80
2022-08-04T06:05:30.599Z,23.55
2022-08-04T06:08:32.312Z,23.69
2022-08-04T06:11:59.132Z,23.88
2022-08-04T06:14:59.974Z,23.86
2022-08-04T06:19:59.308Z,24.15
2022-08-04T06:21:31.512Z,24.33
2022-08-04T06:24:36.325Z,24.32
2022-08-04T06:27:38.507Z,24.55
2022-08-04T06:30:41.313Z,24.73
2022-08-04T06:33:54.485Z,24.78
2022-08-04T06:36:58.431Z,24.91
2022-08-04T06:40:04.110Z,24.93
2022-08-04T06:43:27.817Z,25.07
2022-08-04T06:46:32.271Z,25.13
2022-08-04T06:51:23.476Z,25.28
2022-08-04T06:52:56.512Z,25.47
2022-08-04T06:56:01.104Z,25.53
2022-08-04T06:59:03.759Z,25.76
2022-08-04T07:02:05.446Z,25.93
2022-08-04T07:05:08.561Z,26.07
2022-08-04T07:08:11.851Z,26.36
2022-08-04T07:11:14.958Z,26.63
2022-08-04T07:14:17.899Z,26.97
2022-08-04T07:17:22.172Z,27.32
2022-08-04T07:20:30.400Z,27.45
2022-08-04T07:23:36.762Z,27.46
2022-08-04T07:26:38.265Z,27.61
2022-08-04T07:29:40.070Z,27.63
2022-08-04T07:32:43.736Z,27.70
2022-08-04T07:36:04.975Z,28.20
2022-08-04T07:39:27.305Z,28.15
2022-08-04T07:42:30.574Z,28.33
2022-08-04T07:45:33.215Z,28.45
2022-08-04T07:48:35.008Z,28.54
2022-08-04T07:51:37.488Z,28.39
2022-08-04T07:54:40.025Z,28.74
2022-08-04T07:57:42.275Z,28.81
2022-08-04T08:00:46.781Z,29.14
2022-08-04T08:03:49.632Z,29.34
2022-08-04T08:06:51.609Z,29.65
2022-08-04T08:09:53.325Z,29.41
2022-08-04T08:12:55.560Z,29.65
2022-08-04T08:15:57.676Z,29.80
2022-08-04T08:19:00.773Z,29.71
2022-08-04T08:22:02.799Z,29.72
2022-08-04T08:25:08.674Z,30.16
2022-08-04T08:28:10.493Z,30.27
2022-08-04T08:31:11.984Z,30.50
2022-08-04T08:34:14.267Z,30.70
2022-08-04T08:37:45.460Z,30.51
2022-08-04T08:40:46.849Z,30.43
2022-08-04T08:44:08.836Z,30.40
2022-08-04T08:47:30.496Z,30.55
2022-08-04T08:51:06.902Z,30.83
2022-08-04T08:54:36.915Z,31.27
2022-08-04T08:58:00.105Z,31.19
2022-08-04T09:01:02.290Z,31.46
2022-08-04T09:04:36.798Z,31.34
2022-08-04T09:08:17.695Z,31.70
2022-08-04T09:11:23.823Z,31.83
2022-08-04T09:14:39.894Z,32.07
2022-08-04T09:17:50.000Z,31.71
2022-08-04T09:21:10.987Z,31.78
2022-08-04T09:24:36.714Z,32.27
2022-08-04T09:27:46.198Z,32.01
2022-08-04T09:31:07.235Z,32.35
2022-08-04T09:34:08.943Z,32.30
2022-08-04T09:37:46.196Z,32.54
2022-08-04T09:40:59.954Z,32.46
2022-08-04T09:44:52.268Z,32.78
2022-08-04T09:48:07.390Z,32.85
2022-08-04T09:51:24.410Z,33.01
2022-08-04T09:55:01.837Z,33.27
2022-08-04T09:58:09.270Z,33.46
2022-08-04T10:01:21.061Z,33.30
2022-08-04T10:04:29.220Z,33.68
2022-08-04T10:08:17.251Z,33.77
2022-08-04T10:11:33.184Z,33.94
2022-08-04T10:14:52.997Z,34.02
2022-08-04T10:17:54.543Z,33.98
2022-08-04T10:21:15.250Z,34.11
2022-08-04T10:24:29.903Z,34.32
2022-08-04T10:27:43.392Z,34.16
2022-08-04T10:30:51.853Z,34.23
2022-08-04T10:34:21.765Z,34.73
2022-08-04T10:37:59.829Z,34.70
2022-08-04T10:41:25.171Z,34.83
2022-08-04T10:45:02.261Z,35.31
2022-08-04T10:48:36.142Z,35.33
2022-08-04T10:52:02.054Z,35.31
2022-08-04T10:55:19.398Z,35.40
2022-08-04T10:58:47.979Z,35.44
2022-08-04T11:02:03.086Z,35.87
2022-08-04T11:05:31.221Z,35.92
2022-08-04T11:08:36.838Z,35.90
2022-08-04T11:12:00.446Z,35.26
2022-08-04T11:15:15.429Z,35.50
2022-08-04T11:18:27.713Z,35.79
2022-08-04T11:21:34.071Z,36.20
2022-08-04T11:24:50.354Z,36.12
2022-08-04T11:28:16.185Z,36.78
2022-08-04T11:31:25.585Z,36.66
2022-08-04T11:34:27.944Z,36.80
2022-08-04T11:37:45.478Z,36.44
2022-08-04T11:41:02.031Z,36.16
2022-08-04T11:44:11.916Z,36.17
2022-08-04T11:47:34.582Z,36.41
2022-08-04T11:50:43.317Z,36.37
2022-08-04T11:53:46.517Z,36.63
2022-08-04T11:56:48.306Z,36.95
2022-08-04T11:59:50.150Z,37.23
2022-08-04T12:03:09.192Z,37.19
2022-08-04T12:06:15.144Z,37.03
2022-08-04T12:09:37.558Z,36.96
2022-08-04T12:12:43.999Z,37.09
2022-08-04T12:16:15.098Z,36.87
2022-08-04T12:20:03.830Z,37.10
2022-08-04T12:23:15.990Z,36.93
2022-08-04T12:26:23.366Z,37.23
2022-08-04T12:29:28.111Z,37.70
2022-08-04T12:32:39.135Z,37.55
2022-08-04T12:36:10.387Z,38.15
2022-08-04T12:39:17.751Z,37.65
2022-08-04T12:42:42.164Z,37.91
2022-08-04T12:46:05.536Z,37.76
2022-08-04T12:49:08.835Z,37.65
2022-08-04T12:52:15.001Z,37.79
2022-08-04T12:55:18.253Z,37.90
2022-08-04T12:58:43.669Z,37.99
2022-08-04T13:02:07.812Z,38.37
2022-08-04T13:05:17.084Z,37.88
2022-08-04T13:08:20.999Z,37.79
2022-08-04T13:11:23.602Z,37.69
2022-08-04T13:14:32.046Z,38.05
2022-08-04T13:18:04.191Z,38.68
2022-08-04T13:21:19.283Z,38.47
2022-08-04T13:24:31.943Z,39.00
2022-08-04T13:27:43.255Z,38.66
2022-08-04T13:30:46.975Z,38.31
2022-08-04T13:33:51.897Z,38.69
2022-08-04T13:36:56.120Z,38.19
2022-08-04T13:39:59.994Z,38.73
2022-08-04T13:43:02.727Z,38.56
2022-08-04T13:46:06.472Z,38.99
2022-08-04T13:52:34.596Z,38.89
2022-08-04T13:55:37.093Z,39.34
2022-08-04T13:58:45.442Z,39.80
2022-08-04T14:01:58.470Z,39.46
2022-08-04T14:05:18.565Z,39.68
2022-08-04T14:08:26.255Z,39.50
2022-08-04T14:12:09.717Z,38.82
2022-08-04T14:14:56.323Z,38.90
2022-08-04T14:18:22.220Z,39.51
2022-08-04T14:21:23.672Z,39.49
2022-08-04T14:24:27.541Z,39.44
2022-08-04T14:27:29.203Z,39.70
2022-08-04T14:30:35.278Z,39.66
2022-08-04T14:34:01.759Z,39.04
2022-08-04T14:37:16.845Z,39.44
2022-08-04T14:40:30.847Z,39.38
2022-08-04T14:43:32.827Z,39.12
2022-08-04T14:46:51.081Z,39.30
2022-08-04T14:49:58.594Z,39.53
2022-08-04T14:53:16.077Z,39.34
2022-08-04T14:56:45.002Z,39.16
2022-08-04T15:00:00.815Z,39.38
2022-08-04T15:03:08.516Z,39.57
2022-08-04T15:06:14.427Z,39.59
2022-08-04T15:09:17.967Z,39.47
2022-08-04T15:12:20.010Z,39.29
2022-08-04T15:15:36.405Z,39.57
2022-08-04T15:18:39.314Z,39.64
2022-08-04T15:21:41.489Z,39.41
2022-08-04T15:24:43.008Z,39.71
2022-08-04T15:27:48.613Z,39.32
2022-08-04T15:30:53.408Z,39.25
2022-08-04T15:33:56.742Z,39.09
2022-08-04T15:37:04.012Z,38.99
2022-08-04T15:40:33.616Z,38.66
2022-08-04T15:43:44.763Z,38.89
2022-08-04T15:46:46.192Z,39.31
2022-08-04T15:50:03.968Z,39.93
2022-08-04T15:53:10.576Z,39.70
2022-08-04T15:56:23.529Z,39.98
2022-08-04T16:00:00.025Z,40.13
2022-08-04T16:03:01.627Z,39.99
2022-08-04T16:06:17.991Z,39.59
2022-08-04T16:09:24.727Z,39.02
2022-08-04T16:12:55.481Z,38.12
2022-08-04T16:16:03.006Z,38.36
2022-08-04T16:19:09.272Z,38.37
2022-08-04T16:22:13.468Z,38.62
2022-08-04T16:25:14.962Z,39.11
2022-08-04T16:28:34.860Z,39.60
2022-08-04T16:31:38.665Z,39.49
2022-08-04T16:34:53.861Z,39.58
2022-08-04T16:38:16.255Z,39.43
2022-08-04T16:41:38.735Z,39.40
2022-08-04T16:44:53.073Z,39.75
2022-08-04T16:47:55.144Z,40.13
2022-08-04T16:51:07.256Z,40.23
2022-08-04T16:54:09.153Z,40.90
2022-08-04T16:57:10.905Z,40.80
2022-08-04T17:00:12.820Z,40.67
2022-08-04T17:03:14.358Z,40.93
2022-08-04T17:06:16.052Z,40.89
2022-08-04T17:09:19.552Z,40.40
2022-08-04T17:12:28.399Z,39.87
2022-08-04T17:15:29.876Z,39.22
2022-08-04T17:18:35.508Z,39.42
2022-08-04T17:21:37.137Z,39.34
2022-08-04T17:24:40.844Z,38.65
2022-08-04T17:28:19.433Z,38.33
2022-08-04T17:31:09.582Z,38.63
2022-08-04T17:34:19.158Z,38.34
2022-08-04T17:37:53.103Z,38.30
2022-08-04T17:40:52.857Z,38.03
2022-08-04T17:44:06.505Z,37.95
2022-08-04T17:47:18.254Z,37.71
2022-08-04T17:50:35.680Z,37.84
2022-08-04T17:54:01.587Z,37.79
2022-08-04T17:57:12.737Z,37.63
2022-08-04T18:00:19.638Z,37.03
2022-08-04T18:03:23.709Z,37.30
2022-08-04T18:06:26.081Z,37.31
2022-08-04T18:10:01.692Z,37.40
2022-08-04T18:12:53.708Z,36.77
2022-08-04T18:16:03.094Z,36.33
2022-08-04T18:19:09.163Z,35.97
2022-08-04T18:22:16.666Z,35.68
2022-08-04T18:25:50.855Z,35.85
2022-08-04T18:28:51.761Z,35.64
2022-08-04T18:31:53.259Z,35.35
2022-08-04T18:34:57.318Z,35.11
2022-08-04T18:38:11.353Z,34.81
2022-08-04T18:41:24.551Z,34.63
2022-08-04T18:44:29.184Z,34.42
2022-08-04T18:47:31.522Z,34.29
2022-08-04T18:51:09.512Z,34.17
2022-08-04T18:54:13.007Z,33.92
2022-08-04T19:00:45.365Z,33.34
2022-08-04T19:03:52.252Z,33.46
2022-08-04T19:06:56.166Z,33.06
2022-08-04T19:10:26.433Z,33.04
2022-08-04T19:13:30.070Z,32.85
2022-08-04T19:16:36.708Z,32.60
2022-08-04T19:19:47.404Z,32.52
2022-08-04T19:24:10.357Z,32.51
2022-08-04T19:26:16.654Z,32.24
2022-08-04T19:29:37.601Z,32.59
2022-08-04T19:32:41.980Z,32.15
2022-08-04T19:35:50.712Z,32.43
2022-08-04T19:38:52.505Z,32.18
2022-08-04T19:42:05.932Z,32.14
2022-08-04T19:45:09.424Z,32.12
2022-08-04T19:51:39.626Z,31.94
2022-08-04T19:54:45.539Z,32.06
2022-08-04T19:57:53.135Z,31.94
2022-08-04T20:00:54.954Z,31.64
2022-08-04T20:04:09.006Z,31.73
2022-08-04T20:07:14.536Z,31.56
2022-08-04T20:10:17.285Z,31.56
2022-08-04T20:13:30.931Z,31.60
2022-08-04T20:16:40.131Z,31.45
2022-08-04T20:19:41.735Z,31.43
2022-08-04T20:22:53.415Z,31.59
2022-08-04T20:25:54.966Z,31.70
2022-08-04T20:28:57.726Z,31.59
2022-08-04T20:32:05.524Z,31.65
2022-08-04T20:35:15.715Z,31.64
2022-08-04T20:38:33.221Z,31.46
2022-08-04T20:41:37.102Z,31.27
2022-08-04T20:44:38.693Z,31.29
2022-08-04T20:47:45.975Z,31.19
2022-08-04T20:50:55.793Z,31.12
2022-08-04T20:53:59.266Z,30.80
2022-08-04T20:57:02.127Z,30.67
2022-08-04T21:00:06.230Z,30.72
2022-08-04T21:03:10.016Z,30.79
2022-08-04T21:06:11.379Z,31.03
2022-08-04T21:09:15.568Z,30.66
2022-08-04T21:12:29.125Z,30.60
2022-08-04T21:15:58.004Z,30.54
2022-08-04T21:18:52.042Z,30.66
2022-08-04T21:21:54.252Z,30.91
2022-08-04T21:24:55.706Z,31.00
2022-08-04T21:27:59.083Z,31.05
2022-08-04T21:31:11.372Z,30.81
2022-08-04T21:34:37.944Z,30.67
2022-08-04T21:37:57.791Z,30.37
2022-08-04T21:41:02.692Z,30.39
2022-08-04T21:44:04.569Z,30.52
2022-08-04T21:47:06.334Z,30.47
2022-08-04T21:50:19.999Z,30.56
2022-08-04T21:53:22.770Z,30.17
2022-08-04T21:56:26.558Z,30.23
2022-08-04T21:59:30.381Z,30.23
2022-08-04T22:02:32.558Z,30.47
2022-08-04T22:05:34.012Z,30.40
2022-08-04T22:08:37.457Z,30.34
2022-08-04T22:11:48.111Z,30.12
2022-08-04T22:14:59.449Z,29.96
2022-08-04T22:18:01.447Z,30.01
2022-08-04T22:21:09.559Z,30.20
2022-08-04T22:27:55.008Z,30.13
2022-08-04T22:30:57.622Z,30.00
2022-08-04T22:33:59.095Z,30.02
2022-08-04T22:37:01.362Z,29.82
2022-08-04T22:40:14.498Z,29.70
2022-08-04T22:43:32.528Z,29.78
2022-08-04T22:46:35.438Z,29.76
2022-08-04T22:49:39.635Z,29.26
2022-08-04T22:52:56.039Z,29.46
2022-08-04T22:56:09.988Z,29.18
2022-08-04T22:59:12.450Z,29.15
2022-08-04T23:02:15.170Z,29.15
2022-08-04T23:05:16.827Z,29.16
2022-08-04T23:08:19.445Z,29.05
2022-08-04T23:11:20.946Z,28.99
2022-08-04T23:14:22.626Z,29.07
2022-08-04T23:17:28.344Z,29.07
2022-08-04T23:20:32.931Z,29.06
2022-08-04T23:23:45.649Z,28.98
2022-08-04T23:27:00.282Z,29.03
2022-08-04T23:30:01.798Z,28.88
2022-08-04T23:33:05.123Z,28.97
2022-08-04T23:36:07.497Z,28.90
2022-08-04T23:39:13.367Z,28.95
2022-08-04T23:42:20.934Z,29.00
2022-08-04T23:46:03.824Z,28.97
2022-08-04T23:48:45.356Z,29.02
2022-08-04T23:51:46.864Z,28.84
2022-08-04T23:54:51.843Z,28.76
2022-08-04T23:58:05.587Z,28.69
